sensor_id;sensor_type;location;lat;lon;timestamp;pressure;altitude;pressure_sealevel;temperature;humidity
13476;BME280;6810;63.824;20.288;2024-01-10T00:00:39;102298.75;;;3.88;77.76
13476;BME280;6810;63.824;20.288;2024-01-10T00:03:26;102282.97;;;3.78;76.45
13476;BME280;6810;63.824;20.288;2024-01-10T00:06:12;102295.28;;;3.80;76.40
13476;BME280;6810;63.824;20.288;2024-01-10T00:08:59;102291.75;;;3.77;76.47
13476;BME280;6810;63.824;20.288;2024-01-10T00:11:46;102295.31;;;3.74;76.98
13476;BME280;6810;63.824;20.288;2024-01-10T00:14:33;102286.53;;;3.72;77.78
13476;BME280;6810;63.824;20.288;2024-01-10T00:17:20;102267.22;;;3.61;77.59
13476;BME280;6810;63.824;20.288;2024-01-10T00:20:07;102261.97;;;3.58;77.13
13476;BME280;6810;63.824;20.288;2024-01-10T00:22:54;102276.91;;;3.62;77.62
13476;BME280;6810;63.824;20.288;2024-01-10T00:25:41;102262.00;;;3.53;77.23
13476;BME280;6810;63.824;20.288;2024-01-10T00:28:28;102269.91;;;3.55;77.34
13476;BME280;6810;63.824;20.288;2024-01-10T00:31:16;102279.59;;;3.53;77.26
13476;BME280;6810;63.824;20.288;2024-01-10T00:34:03;102285.75;;;3.49;76.64
13476;BME280;6810;63.824;20.288;2024-01-10T00:36:50;102287.50;;;3.45;77.79
13476;BME280;6810;63.824;20.288;2024-01-10T00:39:37;102282.25;;;3.42;76.87
13476;BME280;6810;63.824;20.288;2024-01-10T00:42:24;102292.81;;;3.39;76.48
13476;BME280;6810;63.824;20.288;2024-01-10T00:45:11;102285.81;;;3.37;77.97
13476;BME280;6810;63.824;20.288;2024-01-10T00:47:58;102284.06;;;3.34;77.17
13476;BME280;6810;63.824;20.288;2024-01-10T00:50:45;102277.03;;;3.30;76.94
13476;BME280;6810;63.824;20.288;2024-01-10T00:53:32;102271.78;;;3.27;76.58
13476;BME280;6810;63.824;20.288;2024-01-10T00:56:19;102263.03;;;3.25;77.56
13476;BME280;6810;63.824;20.288;2024-01-10T00:59:05;102264.78;;;3.23;77.67
13476;BME280;6810;63.824;20.288;2024-01-10T01:01:52;102263.91;;;3.18;76.58
13476;BME280;6810;63.824;20.288;2024-01-10T01:04:39;102266.56;;;3.15;77.27
13476;BME280;6810;63.824;20.288;2024-01-10T01:07:26;102264.81;;;3.14;77.51
13476;BME280;6810;63.824;20.288;2024-01-10T01:10:13;102225.38;;;2.93;77.14
13476;BME280;6810;63.824;20.288;2024-01-10T01:13:03;102257.78;;;3.10;76.92
13476;BME280;6810;63.824;20.288;2024-01-10T01:15:50;102273.59;;;3.07;78.27
13476;BME280;6810;63.824;20.288;2024-01-10T01:18:37;102263.06;;;3.04;77.17
13476;BME280;6810;63.824;20.288;2024-01-10T01:21:24;102278.88;;;3.03;77.86
13476;BME280;6810;63.824;20.288;2024-01-10T01:24:11;102276.25;;;3.00;77.38
13476;BME280;6810;63.824;20.288;2024-01-10T01:26:58;102274.50;;;2.97;76.92
13476;BME280;6810;63.824;20.288;2024-01-10T01:29:45;102271.88;;;2.94;77.84
13476;BME280;6810;63.824;20.288;2024-01-10T01:32:31;102274.53;;;2.91;77.62
13476;BME280;6810;63.824;20.288;2024-01-10T01:35:18;102279.81;;;2.90;77.46
13476;BME280;6810;63.824;20.288;2024-01-10T01:38:05;102268.38;;;2.86;78.11
13476;BME280;6810;63.824;20.288;2024-01-10T01:40:52;102264.00;;;2.84;76.82
13476;BME280;6810;63.824;20.288;2024-01-10T01:43:39;102254.34;;;2.81;76.73
13476;BME280;6810;63.824;20.288;2024-01-10T01:46:27;102249.97;;;2.79;76.88
13476;BME280;6810;63.824;20.288;2024-01-10T01:49:14;102242.97;;;2.73;77.26
13476;BME280;6810;63.824;20.288;2024-01-10T01:52:02;102241.19;;;2.74;77.76
13476;BME280;6810;63.824;20.288;2024-01-10T01:54:49;102238.56;;;2.72;78.20
13476;BME280;6810;63.824;20.288;2024-01-10T01:57:37;102235.94;;;2.69;77.55
13476;BME280;6810;63.824;20.288;2024-01-10T02:00:24;102239.47;;;2.68;78.41
13476;BME280;6810;63.824;20.288;2024-01-10T02:03:11;102224.56;;;2.66;78.21
13476;BME280;6810;63.824;20.288;2024-01-10T02:05:59;102214.91;;;2.65;77.20
13476;BME280;6810;63.824;20.288;2024-01-10T02:08:46;102228.06;;;2.65;77.27
13476;BME280;6810;63.824;20.288;2024-01-10T02:11:33;102221.06;;;2.62;78.39
13476;BME280;6810;63.824;20.288;2024-01-10T02:14:20;102221.94;;;2.63;77.58
13476;BME280;6810;63.824;20.288;2024-01-10T02:17:07;102214.91;;;2.62;77.40
13476;BME280;6810;63.824;20.288;2024-01-10T02:20:13;102215.78;;;2.62;77.52
13476;BME280;6810;63.824;20.288;2024-01-10T02:23:01;102207.91;;;2.62;77.53
13476;BME280;6810;63.824;20.288;2024-01-10T02:25:48;102202.63;;;2.61;78.90
13476;BME280;6810;63.824;20.288;2024-01-10T02:28:35;102197.38;;;2.61;78.72
13476;BME280;6810;63.824;20.288;2024-01-10T02:31:22;102207.00;;;2.62;78.08
13476;BME280;6810;63.824;20.288;2024-01-10T02:34:09;102186.88;;;2.52;78.08
13476;BME280;6810;63.824;20.288;2024-01-10T02:36:56;102208.78;;;2.60;77.48
13476;BME280;6810;63.824;20.288;2024-01-10T02:39:42;102207.91;;;2.59;77.74
13476;BME280;6810;63.824;20.288;2024-01-10T02:42:31;102184.25;;;2.44;78.02
13476;BME280;6810;63.824;20.288;2024-01-10T02:45:18;102204.41;;;2.54;77.80
13476;BME280;6810;63.824;20.288;2024-01-10T02:48:05;102202.66;;;2.55;78.09
13476;BME280;6810;63.824;20.288;2024-01-10T02:50:52;102201.78;;;2.53;78.56
13476;BME280;6810;63.824;20.288;2024-01-10T02:53:39;102200.03;;;2.52;77.66
13476;BME280;6810;63.824;20.288;2024-01-10T02:56:26;102189.50;;;2.52;78.08
13476;BME280;6810;63.824;20.288;2024-01-10T02:59:13;102197.41;;;2.50;77.99
13476;BME280;6810;63.824;20.288;2024-01-10T03:02:00;102194.78;;;2.47;77.92
13476;BME280;6810;63.824;20.288;2024-01-10T03:04:47;102194.78;;;2.46;78.18
13476;BME280;6810;63.824;20.288;2024-01-10T03:07:34;102169.34;;;2.27;78.68
13476;BME280;6810;63.824;20.288;2024-01-10T03:10:21;102190.38;;;2.43;78.20
13476;BME280;6810;63.824;20.288;2024-01-10T03:13:08;102194.78;;;2.40;78.36
13476;BME280;6810;63.824;20.288;2024-01-10T03:15:55;102204.44;;;2.38;78.47
13476;BME280;6810;63.824;20.288;2024-01-10T03:18:42;102200.91;;;2.37;78.39
13476;BME280;6810;63.824;20.288;2024-01-10T03:21:29;102204.44;;;2.35;78.48
13476;BME280;6810;63.824;20.288;2024-01-10T03:24:16;102207.94;;;2.34;78.02
13476;BME280;6810;63.824;20.288;2024-01-10T03:27:04;102200.06;;;2.34;78.78
13476;BME280;6810;63.824;20.288;2024-01-10T03:29:50;102185.13;;;2.34;78.23
13476;BME280;6810;63.824;20.288;2024-01-10T03:32:37;102190.41;;;2.34;78.81
13476;BME280;6810;63.824;20.288;2024-01-10T03:35:24;102191.28;;;2.33;78.54
13476;BME280;6810;63.824;20.288;2024-01-10T03:38:11;102195.66;;;2.34;78.36
13476;BME280;6810;63.824;20.288;2024-01-10T03:40:58;102187.75;;;2.34;79.13
13476;BME280;6810;63.824;20.288;2024-01-10T03:43:46;102177.25;;;2.31;78.33
13476;BME280;6810;63.824;20.288;2024-01-10T03:46:33;102178.13;;;2.35;79.06
13476;BME280;6810;63.824;20.288;2024-01-10T03:49:20;102176.38;;;2.34;79.12
13476;BME280;6810;63.824;20.288;2024-01-10T03:52:07;102171.97;;;2.33;78.96
13476;BME280;6810;63.824;20.288;2024-01-10T03:54:54;102182.50;;;2.34;79.22
13476;BME280;6810;63.824;20.288;2024-01-10T03:57:41;102172.88;;;2.32;78.88
13476;BME280;6810;63.824;20.288;2024-01-10T04:00:28;102168.50;;;2.32;78.91
13476;BME280;6810;63.824;20.288;2024-01-10T04:03:15;102136.94;;;2.10;78.58
13476;BME280;6810;63.824;20.288;2024-01-10T04:06:02;102171.97;;;2.31;79.10
13476;BME280;6810;63.824;20.288;2024-01-10T04:08:49;102163.25;;;2.31;78.22
13476;BME280;6810;63.824;20.288;2024-01-10T04:11:36;102162.34;;;2.29;78.38
13476;BME280;6810;63.824;20.288;2024-01-10T04:14:23;102166.72;;;2.28;79.31
13476;BME280;6810;63.824;20.288;2024-01-10T04:17:10;102165.00;;;2.27;79.36
13476;BME280;6810;63.824;20.288;2024-01-10T04:19:57;102162.38;;;2.24;78.67
13476;BME280;6810;63.824;20.288;2024-01-10T04:22:44;102156.22;;;2.24;78.44
13476;BME280;6810;63.824;20.288;2024-01-10T04:25:31;102150.97;;;2.22;78.29
13476;BME280;6810;63.824;20.288;2024-01-10T04:28:18;102146.59;;;2.21;78.26
13476;BME280;6810;63.824;20.288;2024-01-10T04:31:05;102150.97;;;2.19;78.59
13476;BME280;6810;63.824;20.288;2024-01-10T04:33:52;102142.19;;;2.17;78.80
13476;BME280;6810;63.824;20.288;2024-01-10T04:36:39;102136.06;;;2.15;79.18
13476;BME280;6810;63.824;20.288;2024-01-10T04:39:26;102129.03;;;2.13;78.62
13476;BME280;6810;63.824;20.288;2024-01-10T04:42:13;102130.81;;;2.12;79.06
13476;BME280;6810;63.824;20.288;2024-01-10T04:45:00;102129.94;;;2.10;78.99
13476;BME280;6810;63.824;20.288;2024-01-10T04:47:47;102124.69;;;2.09;79.08
13476;BME280;6810;63.824;20.288;2024-01-10T04:50:34;102107.16;;;2.08;79.43
13476;BME280;6810;63.824;20.288;2024-01-10T04:53:21;102100.13;;;2.05;78.63
13476;BME280;6810;63.824;20.288;2024-01-10T04:56:08;102101.91;;;2.05;78.49
13476;BME280;6810;63.824;20.288;2024-01-10T04:58:55;102100.13;;;2.02;78.60
13476;BME280;6810;63.824;20.288;2024-01-10T05:01:42;102094.88;;;2.04;78.57
13476;BME280;6810;63.824;20.288;2024-01-10T05:04:09;102066.88;;;1.89;78.45
13476;BME280;6810;63.824;20.288;2024-01-10T05:06:36;102069.47;;;2.01;78.96
13476;BME280;6810;63.824;20.288;2024-01-10T05:09:03;102073.84;;;2.05;78.69
13476;BME280;6810;63.824;20.288;2024-01-10T05:11:31;102074.72;;;2.09;79.79
13476;BME280;6810;63.824;20.288;2024-01-10T05:13:58;102082.59;;;2.10;79.75
13476;BME280;6810;63.824;20.288;2024-01-10T05:16:25;102068.59;;;2.07;79.58
13476;BME280;6810;63.824;20.288;2024-01-10T05:18:52;102084.34;;;2.13;79.57
13476;BME280;6810;63.824;20.288;2024-01-10T05:21:19;102081.72;;;2.14;78.62
13476;BME280;6810;63.824;20.288;2024-01-10T05:23:46;102084.34;;;2.17;79.91
13476;BME280;6810;63.824;20.288;2024-01-10T05:26:13;102083.47;;;2.21;80.03
13476;BME280;6810;63.824;20.288;2024-01-10T05:28:40;102053.66;;;2.15;79.55
13476;BME280;6810;63.824;20.288;2024-01-10T05:31:07;102076.44;;;2.29;79.39
13476;BME280;6810;63.824;20.288;2024-01-10T05:33:34;102071.16;;;2.35;80.23
13476;BME280;6810;63.824;20.288;2024-01-10T05:36:01;102060.59;;;2.41;79.33
13476;BME280;6810;63.824;20.288;2024-01-10T05:38:28;102054.44;;;2.47;79.82
13476;BME280;6810;63.824;20.288;2024-01-10T05:40:55;102047.41;;;2.53;79.43
13476;BME280;6810;63.824;20.288;2024-01-10T05:43:22;102043.84;;;2.62;80.34
13476;BME280;6810;63.824;20.288;2024-01-10T05:45:49;102026.28;;;2.68;80.24
13476;BME280;6810;63.824;20.288;2024-01-10T05:48:16;102010.44;;;2.76;79.88
13476;BME280;6810;63.824;20.288;2024-01-10T05:50:44;102001.59;;;2.84;79.86
13476;BME280;6810;63.824;20.288;2024-01-10T05:53:11;101994.53;;;2.91;80.89
13476;BME280;6810;63.824;20.288;2024-01-10T05:55:40;101972.56;;;2.98;80.91
13476;BME280;6810;63.824;20.288;2024-01-10T05:58:07;101967.25;;;3.04;80.62
13476;BME280;6810;63.824;20.288;2024-01-10T06:00:36;101952.25;;;3.10;79.92
13476;BME280;6810;63.824;20.288;2024-01-10T06:03:04;101953.97;;;3.17;80.11
13476;BME280;6810;63.824;20.288;2024-01-10T06:05:31;101958.28;;;3.24;81.21
13476;BME280;6810;63.824;20.288;2024-01-10T06:07:58;101956.50;;;3.29;81.09
13476;BME280;6810;63.824;20.288;2024-01-10T06:10:25;101961.69;;;3.35;80.89
13476;BME280;6810;63.824;20.288;2024-01-10T06:12:52;101951.13;;;3.40;81.03
13476;BME280;6810;63.824;20.288;2024-01-10T06:15:19;101955.47;;;3.44;80.31
13476;BME280;6810;63.824;20.288;2024-01-10T06:17:46;101944.84;;;3.50;80.28
13476;BME280;6810;63.824;20.288;2024-01-10T06:20:14;101936.06;;;3.52;80.01
13476;BME280;6810;63.824;20.288;2024-01-10T06:22:40;101920.28;;;3.51;80.34
13476;BME280;6810;63.824;20.288;2024-01-10T06:25:08;101909.66;;;3.58;80.85
13476;BME280;6810;63.824;20.288;2024-01-10T06:27:35;101908.72;;;3.61;81.51
13476;BME280;6810;63.824;20.288;2024-01-10T06:30:03;101898.16;;;3.63;80.40
13476;BME280;6810;63.824;20.288;2024-01-10T06:32:30;101900.81;;;3.63;81.39
13476;BME280;6810;63.824;20.288;2024-01-10T06:34:57;101898.16;;;3.64;80.00
13476;BME280;6810;63.824;20.288;2024-01-10T06:37:24;101912.22;;;3.65;80.81
13476;BME280;6810;63.824;20.288;2024-01-10T06:39:51;101898.16;;;3.64;80.37
13476;BME280;6810;63.824;20.288;2024-01-10T06:42:18;101884.94;;;3.67;81.10
13476;BME280;6810;63.824;20.288;2024-01-10T06:44:45;101884.91;;;3.69;80.79
13476;BME280;6810;63.824;20.288;2024-01-10T06:47:12;101866.47;;;3.69;80.85
13476;BME280;6810;63.824;20.288;2024-01-10T06:49:41;101861.16;;;3.70;80.83
13476;BME280;6810;63.824;20.288;2024-01-10T06:52:08;101840.06;;;3.70;79.98
13476;BME280;6810;63.824;20.288;2024-01-10T06:54:35;101834.78;;;3.72;81.43
13476;BME280;6810;63.824;20.288;2024-01-10T06:57:02;101839.19;;;3.73;81.49
13476;BME280;6810;63.824;20.288;2024-01-10T06:59:29;101837.38;;;3.76;80.06
13476;BME280;6810;63.824;20.288;2024-01-10T07:01:56;101832.94;;;3.78;80.32
13476;BME280;6810;63.824;20.288;2024-01-10T07:04:23;101837.25;;;3.84;80.09
13476;BME280;6810;63.824;20.288;2024-01-10T07:06:51;101843.38;;;3.87;80.21
13476;BME280;6810;63.824;20.288;2024-01-10T07:09:18;101838.94;;;3.91;80.17
13476;BME280;6810;63.824;20.288;2024-01-10T07:11:47;101846.78;;;3.95;80.44
13476;BME280;6810;63.824;20.288;2024-01-10T07:14:15;101829.16;;;4.00;80.33
13476;BME280;6810;63.824;20.288;2024-01-10T07:16:42;101829.94;;;4.05;80.85
13476;BME280;6810;63.824;20.288;2024-01-10T07:19:12;101825.47;;;4.12;80.88
13476;BME280;6810;63.824;20.288;2024-01-10T07:21:41;101814.84;;;4.16;81.62
13476;BME280;6810;63.824;20.288;2024-01-10T07:24:09;101810.41;;;4.18;80.93
13476;BME280;6810;63.824;20.288;2024-01-10T07:26:37;101809.47;;;4.22;80.19
13476;BME280;6810;63.824;20.288;2024-01-10T07:29:04;101801.44;;;4.30;81.18
13476;BME280;6810;63.824;20.288;2024-01-10T07:31:35;101789.97;;;4.32;80.90
13476;BME280;6810;63.824;20.288;2024-01-10T07:34:02;101774.91;;;4.37;80.91
13476;BME280;6810;63.824;20.288;2024-01-10T07:36:33;101790.69;;;4.42;80.10
13476;BME280;6810;63.824;20.288;2024-01-10T07:39:00;101787.09;;;4.47;80.11
13476;BME280;6810;63.824;20.288;2024-01-10T07:41:30;101792.34;;;4.49;80.13
13476;BME280;6810;63.824;20.288;2024-01-10T07:43:57;101800.16;;;4.55;79.71
13476;BME280;6810;63.824;20.288;2024-01-10T07:46:24;101793.94;;;4.57;80.25
13476;BME280;6810;63.824;20.288;2024-01-10T07:48:54;101785.97;;;4.60;81.06
13476;BME280;6810;63.824;20.288;2024-01-10T07:51:21;101792.13;;;4.62;80.41
13476;BME280;6810;63.824;20.288;2024-01-10T07:53:48;101797.31;;;4.67;80.80
13476;BME280;6810;63.824;20.288;2024-01-10T07:56:15;101786.75;;;4.67;80.61
13476;BME280;6810;63.824;20.288;2024-01-10T07:58:42;101806.91;;;4.71;80.32
13476;BME280;6810;63.824;20.288;2024-01-10T08:01:09;101802.50;;;4.73;80.64
13476;BME280;6810;63.824;20.288;2024-01-10T08:03:38;101789.25;;;4.74;79.49
13476;BME280;6810;63.824;20.288;2024-01-10T08:06:06;101781.28;;;4.77;79.50
13476;BME280;6810;63.824;20.288;2024-01-10T08:08:46;101788.28;;;4.81;80.45
13476;BME280;6810;63.824;20.288;2024-01-10T08:11:13;101784.69;;;4.84;79.77
13476;BME280;6810;63.824;20.288;2024-01-10T08:13:39;101786.38;;;4.88;79.55
13476;BME280;6810;63.824;20.288;2024-01-10T08:16:07;101799.53;;;4.91;79.94
13476;BME280;6810;63.824;20.288;2024-01-10T08:18:36;101802.09;;;4.94;79.47
13476;BME280;6810;63.824;20.288;2024-01-10T08:21:03;101795.91;;;4.96;78.94
13476;BME280;6810;63.824;20.288;2024-01-10T08:23:31;101780.84;;;5.00;79.24
13476;BME280;6810;63.824;20.288;2024-01-10T08:25:58;101782.66;;;4.99;78.85
13476;BME280;6810;63.824;20.288;2024-01-10T08:28:25;101785.25;;;5.01;78.79
13476;BME280;6810;63.824;20.288;2024-01-10T08:30:53;101780.66;;;5.10;78.69
13476;BME280;6810;63.824;20.288;2024-01-10T08:33:29;101774.56;;;5.08;79.66
13476;BME280;6810;63.824;20.288;2024-01-10T08:35:57;101773.53;;;5.15;79.31
13476;BME280;6810;63.824;20.288;2024-01-10T08:38:26;101766.41;;;5.19;78.65
13476;BME280;6810;63.824;20.288;2024-01-10T08:40:53;101751.56;;;5.12;78.45
13476;BME280;6810;63.824;20.288;2024-01-10T08:43:20;101775.91;;;5.27;78.61
13476;BME280;6810;63.824;20.288;2024-01-10T08:45:47;101760.91;;;5.29;78.94
13476;BME280;6810;63.824;20.288;2024-01-10T08:48:14;101755.56;;;5.32;78.85
13476;BME280;6810;63.824;20.288;2024-01-10T08:50:42;101809.25;;;5.36;77.62
13476;BME280;6810;63.824;20.288;2024-01-10T08:53:10;101780.09;;;5.39;78.22
13476;BME280;6810;63.824;20.288;2024-01-10T08:55:38;101756.31;;;5.39;77.42
13476;BME280;6810;63.824;20.288;2024-01-10T08:58:05;101756.16;;;5.47;78.15
13476;BME280;6810;63.824;20.288;2024-01-10T09:00:32;101730.53;;;5.50;76.89
13476;BME280;6810;63.824;20.288;2024-01-10T09:03:00;101730.50;;;5.52;76.88
13476;BME280;6810;63.824;20.288;2024-01-10T09:05:27;101755.13;;;5.54;76.70
13476;BME280;6810;63.824;20.288;2024-01-10T09:07:54;101735.81;;;5.50;77.17
13476;BME280;6810;63.824;20.288;2024-01-10T09:10:21;101745.31;;;5.59;76.95
13476;BME280;6810;63.824;20.288;2024-01-10T09:12:48;101733.00;;;5.58;76.25
13476;BME280;6810;63.824;20.288;2024-01-10T09:15:15;101721.41;;;5.63;75.94
13476;BME280;6810;63.824;20.288;2024-01-10T09:17:43;101760.13;;;5.66;76.42
13476;BME280;6810;63.824;20.288;2024-01-10T09:20:11;101717.78;;;5.67;75.49
13476;BME280;6810;63.824;20.288;2024-01-10T09:22:39;101709.78;;;5.70;75.12
13476;BME280;6810;63.824;20.288;2024-01-10T09:25:06;101702.66;;;5.74;75.47
13476;BME280;6810;63.824;20.288;2024-01-10T09:27:34;101715.78;;;5.78;75.37
13476;BME280;6810;63.824;20.288;2024-01-10T09:30:05;101731.59;;;5.81;75.29
13476;BME280;6810;63.824;20.288;2024-01-10T09:32:35;101763.28;;;5.84;74.72
13476;BME280;6810;63.824;20.288;2024-01-10T09:35:03;101732.59;;;5.76;74.59
13476;BME280;6810;63.824;20.288;2024-01-10T09:37:31;101757.81;;;5.92;74.52
13476;BME280;6810;63.824;20.288;2024-01-10T09:39:57;101760.41;;;5.95;74.30
13476;BME280;6810;63.824;20.288;2024-01-10T09:42:25;101749.75;;;5.98;73.71
13476;BME280;6810;63.824;20.288;2024-01-10T09:44:52;101740.00;;;6.00;73.86
13476;BME280;6810;63.824;20.288;2024-01-10T09:47:20;101732.03;;;6.01;73.31
13476;BME280;6810;63.824;20.288;2024-01-10T09:49:47;101725.78;;;6.04;73.87
13476;BME280;6810;63.824;20.288;2024-01-10T09:52:25;101723.97;;;6.06;73.37
13476;BME280;6810;63.824;20.288;2024-01-10T09:54:56;101726.63;;;6.06;73.07
13476;BME280;6810;63.824;20.288;2024-01-10T09:57:24;101726.53;;;6.10;73.09
13476;BME280;6810;63.824;20.288;2024-01-10T09:59:53;101720.34;;;6.11;72.72
13476;BME280;6810;63.824;20.288;2024-01-10T10:02:23;101729.97;;;6.14;72.70
13476;BME280;6810;63.824;20.288;2024-01-10T10:04:59;101720.25;;;6.14;72.69
13476;BME280;6810;63.824;20.288;2024-01-10T10:07:29;101717.53;;;6.17;73.00
13476;BME280;6810;63.824;20.288;2024-01-10T10:09:57;101713.09;;;6.18;72.43
13476;BME280;6810;63.824;20.288;2024-01-10T10:15:14;101703.34;;;6.20;71.98
13476;BME280;6810;63.824;20.288;2024-01-10T10:17:46;101692.75;;;6.20;72.39
13476;BME280;6810;63.824;20.288;2024-01-10T10:20:20;101675.13;;;6.20;71.98
13476;BME280;6810;63.824;20.288;2024-01-10T10:23:08;101673.31;;;6.21;72.32
13476;BME280;6810;63.824;20.288;2024-01-10T10:25:43;101673.31;;;6.21;71.88
13476;BME280;6810;63.824;20.288;2024-01-10T10:28:11;101658.34;;;6.20;72.14
13476;BME280;6810;63.824;20.288;2024-01-10T10:30:55;101638.22;;;6.14;72.05
13476;BME280;6810;63.824;20.288;2024-01-10T10:33:22;101664.50;;;6.22;71.89
13476;BME280;6810;63.824;20.288;2024-01-10T10:35:49;101660.03;;;6.22;71.62
13476;BME280;6810;63.824;20.288;2024-01-10T10:38:22;101652.97;;;6.23;71.55
13476;BME280;6810;63.824;20.288;2024-01-10T10:40:50;101659.16;;;6.23;71.38
13476;BME280;6810;63.824;20.288;2024-01-10T10:43:19;101635.34;;;6.23;71.93
13476;BME280;6810;63.824;20.288;2024-01-10T10:45:49;101631.75;;;6.24;71.16
13476;BME280;6810;63.824;20.288;2024-01-10T10:48:19;101637.97;;;6.23;71.01
13476;BME280;6810;63.824;20.288;2024-01-10T10:51:01;101640.59;;;6.25;71.53
13476;BME280;6810;63.824;20.288;2024-01-10T10:53:31;101634.38;;;6.26;71.65
13476;BME280;6810;63.824;20.288;2024-01-10T10:56:02;101623.78;;;6.26;71.39
13476;BME280;6810;63.824;20.288;2024-01-10T10:58:40;101615.81;;;6.27;71.25
13476;BME280;6810;63.824;20.288;2024-01-10T11:01:09;101611.38;;;6.28;70.89
13476;BME280;6810;63.824;20.288;2024-01-10T11:03:39;101582.94;;;6.02;71.16
13476;BME280;6810;63.824;20.288;2024-01-10T11:06:14;101594.56;;;6.29;71.06
13476;BME280;6810;63.824;20.288;2024-01-10T11:08:48;101601.63;;;6.28;70.39
13476;BME280;6810;63.824;20.288;2024-01-10T11:11:31;101588.41;;;6.28;70.62
13476;BME280;6810;63.824;20.288;2024-01-10T11:14:27;101604.25;;;6.30;70.85
13476;BME280;6810;63.824;20.288;2024-01-10T11:20:05;101570.72;;;6.30;70.52
13476;BME280;6810;63.824;20.288;2024-01-10T11:23:09;101561.88;;;6.30;70.45
13476;BME280;6810;63.824;20.288;2024-01-10T11:25:39;101561.88;;;6.30;70.41
13476;BME280;6810;63.824;20.288;2024-01-10T11:28:07;101546.00;;;6.30;70.58
13476;BME280;6810;63.824;20.288;2024-01-10T11:30:36;101549.53;;;6.30;70.50
13476;BME280;6810;63.824;20.288;2024-01-10T11:33:24;101534.81;;;6.20;70.10
13476;BME280;6810;63.824;20.288;2024-01-10T11:41:34;101554.88;;;6.29;70.21
13476;BME280;6810;63.824;20.288;2024-01-10T11:46:37;101532.91;;;6.25;69.79
13476;BME280;6810;63.824;20.288;2024-01-10T11:49:08;101541.69;;;6.27;69.97
13476;BME280;6810;63.824;20.288;2024-01-10T11:51:35;101531.09;;;6.27;70.02
13476;BME280;6810;63.824;20.288;2024-01-10T11:54:05;101527.56;;;6.27;69.92
13476;BME280;6810;63.824;20.288;2024-01-10T11:56:40;101527.56;;;6.27;70.01
13476;BME280;6810;63.824;20.288;2024-01-10T11:59:11;101510.03;;;6.23;70.23
13476;BME280;6810;63.824;20.288;2024-01-10T12:01:39;101509.94;;;6.26;70.24
13476;BME280;6810;63.824;20.288;2024-01-10T12:04:07;101478.53;;;6.14;69.80
13476;BME280;6810;63.824;20.288;2024-01-10T12:06:46;101493.19;;;6.25;70.17
13476;BME280;6810;63.824;20.288;2024-01-10T12:09:15;101434.91;;;5.96;68.81
13476;BME280;6810;63.824;20.288;2024-01-10T12:11:44;101480.03;;;6.22;69.04
13476;BME280;6810;63.824;20.288;2024-01-10T12:14:11;101487.75;;;6.30;69.09
13476;BME280;6810;63.824;20.288;2024-01-10T12:16:38;101453.88;;;6.12;69.02
13476;BME280;6810;63.824;20.288;2024-01-10T12:19:27;101478.09;;;6.29;68.87
13476;BME280;6810;63.824;20.288;2024-01-10T12:22:16;101486.88;;;6.31;69.15
13476;BME280;6810;63.824;20.288;2024-01-10T12:25:06;101474.63;;;6.27;69.36
13476;BME280;6810;63.824;20.288;2024-01-10T12:27:53;101469.28;;;6.28;69.27
13476;BME280;6810;63.824;20.288;2024-01-10T12:30:41;101463.13;;;6.28;69.22
13476;BME280;6810;63.824;20.288;2024-01-10T12:33:28;101459.63;;;6.27;69.90
13476;BME280;6810;63.824;20.288;2024-01-10T12:36:17;101461.44;;;6.25;69.11
13476;BME280;6810;63.824;20.288;2024-01-10T12:39:04;101455.25;;;6.26;69.29
13476;BME280;6810;63.824;20.288;2024-01-10T12:41:51;101442.97;;;6.22;69.45
13476;BME280;6810;63.824;20.288;2024-01-10T12:44:38;101419.34;;;6.16;69.04
13476;BME280;6810;63.824;20.288;2024-01-10T12:47:29;101430.59;;;6.24;68.97
13476;BME280;6810;63.824;20.288;2024-01-10T12:50:16;101431.50;;;6.23;68.72
13476;BME280;6810;63.824;20.288;2024-01-10T12:53:03;101415.63;;;6.23;69.38
13476;BME280;6810;63.824;20.288;2024-01-10T12:55:50;101407.69;;;6.23;68.81
13476;BME280;6810;63.824;20.288;2024-01-10T12:58:37;101411.22;;;6.22;68.79
13476;BME280;6810;63.824;20.288;2024-01-10T13:01:25;101410.34;;;6.23;68.94
13476;BME280;6810;63.824;20.288;2024-01-10T13:04:12;101405.94;;;6.22;68.66
13476;BME280;6810;63.824;20.288;2024-01-10T13:06:59;101396.22;;;6.23;68.94
13476;BME280;6810;63.824;20.288;2024-01-10T13:09:46;101387.41;;;6.22;69.33
13476;BME280;6810;63.824;20.288;2024-01-10T13:12:32;101384.72;;;6.24;69.38
13476;BME280;6810;63.824;20.288;2024-01-10T13:15:19;101365.34;;;6.23;69.36
13476;BME280;6810;63.824;20.288;2024-01-10T13:18:06;101365.34;;;6.23;69.10
13476;BME280;6810;63.824;20.288;2024-01-10T13:20:54;101357.53;;;6.19;69.00
13476;BME280;6810;63.824;20.288;2024-01-10T13:23:41;101366.28;;;6.21;69.11
13476;BME280;6810;63.824;20.288;2024-01-10T13:26:28;101366.28;;;6.21;68.92
13476;BME280;6810;63.824;20.288;2024-01-10T13:29:15;101351.22;;;6.23;69.02
13476;BME280;6810;63.824;20.288;2024-01-10T13:32:06;101341.56;;;6.22;68.64
13476;BME280;6810;63.824;20.288;2024-01-10T13:34:53;101351.22;;;6.23;68.70
13476;BME280;6810;63.824;20.288;2024-01-10T13:37:41;101348.56;;;6.23;68.42
13476;BME280;6810;63.824;20.288;2024-01-10T13:40:28;101326.53;;;6.22;68.55
13476;BME280;6810;63.824;20.288;2024-01-10T13:43:15;101345.94;;;6.23;68.17
13476;BME280;6810;63.824;20.288;2024-01-10T13:46:02;101330.97;;;6.22;68.97
13476;BME280;6810;63.824;20.288;2024-01-10T13:48:49;101338.97;;;6.20;69.02
13476;BME280;6810;63.824;20.288;2024-01-10T13:51:36;101318.63;;;6.21;68.23
13476;BME280;6810;63.824;20.288;2024-01-10T13:54:23;101309.84;;;6.20;68.84
13476;BME280;6810;63.824;20.288;2024-01-10T13:57:09;101263.50;;;6.07;68.86
13476;BME280;6810;63.824;20.288;2024-01-10T13:59:59;101283.56;;;6.14;68.22
13476;BME280;6810;63.824;20.288;2024-01-10T14:02:46;101287.84;;;6.18;68.54
13476;BME280;6810;63.824;20.288;2024-01-10T14:05:33;101300.16;;;6.19;68.70
13476;BME280;6810;63.824;20.288;2024-01-10T14:08:20;101295.78;;;6.18;68.58